createdAt,value
2022-09-17T00:02:13.536Z,990.94
2022-09-17T00:12:19.783Z,990.92
2022-09-17T00:22:25.960Z,991.03
2022-09-17T00:32:33.552Z,991.04
2022-09-17T00:42:39.261Z,990.96
2022-09-17T00:52:47.588Z,991.06
2022-09-17T01:02:53.661Z,991.08
2022-09-17T01:13:01.420Z,991.13
2022-09-17T01:23:07.017Z,991.05
2022-09-17T01:33:15.464Z,991.04
2022-09-17T01:43:22.041Z,991.08
2022-09-17T01:53:28.291Z,991.11
2022-09-17T02:03:34.551Z,991.03
2022-09-17T02:13:42.009Z,991.22
2022-09-17T02:23:47.783Z,991.08
2022-09-17T02:33:55.237Z,991.07
2022-09-17T02:44:01.161Z,991.09
2022-09-17T02:54:09.517Z,991.14
2022-09-17T03:04:15.747Z,991.16
2022-09-17T03:14:22.913Z,991.11
2022-09-17T03:24:28.576Z,991.07
2022-09-17T03:34:36.311Z,991.11
2022-09-17T03:44:45.262Z,991.14
2022-09-17T03:54:54.037Z,991.16
2022-09-17T04:05:01.236Z,991.21
2022-09-17T04:15:08.838Z,991.26
2022-09-17T04:25:14.789Z,991.30
2022-09-17T04:35:23.136Z,991.24
2022-09-17T04:45:29.289Z,991.21
2022-09-17T04:55:35.736Z,991.28
2022-09-17T05:05:41.805Z,991.37
2022-09-17T05:15:48.070Z,991.43
2022-09-17T05:25:54.045Z,991.50
2022-09-17T05:36:00.470Z,991.65
2022-09-17T05:46:07.116Z,991.78
2022-09-17T05:56:13.424Z,991.90
2022-09-17T06:06:19.849Z,992.05
2022-09-17T06:16:26.121Z,992.12
2022-09-17T06:26:32.640Z,992.25
2022-09-17T06:36:38.862Z,992.21
2022-09-17T06:46:45.075Z,992.18
2022-09-17T06:56:51.542Z,992.20
2022-09-17T07:06:57.542Z,992.29
2022-09-17T07:17:05.299Z,992.20
2022-09-17T07:27:11.454Z,992.15
2022-09-17T07:37:19.075Z,992.18
2022-09-17T07:47:24.712Z,992.43
2022-09-17T07:57:32.584Z,992.42
2022-09-17T08:07:39.120Z,992.53
2022-09-17T08:17:45.429Z,992.64
2022-09-17T08:27:51.782Z,992.72
2022-09-17T08:37:59.657Z,992.70
2022-09-17T08:48:05.622Z,992.67
2022-09-17T08:58:11.997Z,992.81
2022-09-17T09:08:17.854Z,992.98
2022-09-17T09:18:26.044Z,993.06
2022-09-17T09:28:32.536Z,993.13
2022-09-17T09:38:40.216Z,993.14
2022-09-17T09:48:46.038Z,993.10
2022-09-17T09:58:54.067Z,993.29
2022-09-17T10:08:59.953Z,993.24
2022-09-17T10:19:07.673Z,993.25
2022-09-17T10:29:13.345Z,993.03
2022-09-17T10:39:21.455Z,993.02
2022-09-17T10:49:27.402Z,992.81
2022-09-17T10:59:34.610Z,992.91
2022-09-17T11:09:40.882Z,992.90
2022-09-17T11:19:49.112Z,993.13
2022-09-17T11:29:55.028Z,992.81
2022-09-17T11:40:02.457Z,992.83
2022-09-17T11:50:08.185Z,992.72
2022-09-17T12:00:15.184Z,992.85
2022-09-17T12:10:20.980Z,992.83
2022-09-17T12:20:28.099Z,992.76
2022-09-17T12:30:35.363Z,992.59
2022-09-17T12:40:43.411Z,992.46
2022-09-17T12:50:48.910Z,992.52
2022-09-17T13:00:56.705Z,992.67
2022-09-17T13:11:02.321Z,992.50
2022-09-17T13:21:10.093Z,992.34
2022-09-17T13:31:16.151Z,992.37
2022-09-17T13:41:24.115Z,992.26
2022-09-17T13:51:31.011Z,992.48
2022-09-17T14:01:41.723Z,992.35
2022-09-17T14:11:48.644Z,992.43
2022-09-17T14:21:55.869Z,992.36
2022-09-17T14:32:01.689Z,992.29
2022-09-17T14:42:07.708Z,992.23
2022-09-17T14:52:15.431Z,992.30
2022-09-17T15:02:20.806Z,992.21
2022-09-17T15:12:27.781Z,992.30
2022-09-17T15:22:33.036Z,992.33
2022-09-17T15:32:40.803Z,992.55
2022-09-17T15:42:46.367Z,992.67
2022-09-17T15:52:53.930Z,992.55
2022-09-17T16:02:59.575Z,992.57
2022-09-17T16:13:07.275Z,992.52
2022-09-17T16:23:13.192Z,992.53
2022-09-17T16:33:20.350Z,992.49
2022-09-17T16:43:26.417Z,992.40
2022-09-17T16:53:36.401Z,992.39
2022-09-17T17:03:42.870Z,992.47
2022-09-17T17:13:49.191Z,992.37
2022-09-17T17:23:55.576Z,992.29
2022-09-17T17:34:02.750Z,992.26
2022-09-17T17:44:08.520Z,992.48
2022-09-17T17:54:18.492Z,992.52
2022-09-17T18:04:24.915Z,992.71
2022-09-17T18:14:33.053Z,992.80
2022-09-17T18:24:38.806Z,993.04
2022-09-17T18:34:46.335Z,993.11
2022-09-17T18:44:52.134Z,993.21
2022-09-17T18:54:59.819Z,993.35
2022-09-17T19:05:05.310Z,993.48
2022-09-17T19:15:15.214Z,993.44
2022-09-17T19:25:21.592Z,993.46
2022-09-17T19:35:27.389Z,993.38
2022-09-17T19:45:34.340Z,993.44
2022-09-17T19:55:40.642Z,993.29
2022-09-17T20:05:47.337Z,993.26
2022-09-17T20:15:55.256Z,993.33
2022-09-17T20:26:00.993Z,993.17
2022-09-17T20:36:08.376Z,993.18
2022-09-17T20:46:14.469Z,993.26
2022-09-17T20:56:21.708Z,993.35
2022-09-17T21:06:27.725Z,993.28
2022-09-17T21:16:35.657Z,993.31
2022-09-17T21:26:41.115Z,993.34
2022-09-17T21:36:51.316Z,993.45
2022-09-17T21:46:57.673Z,993.37
2022-09-17T21:57:04.192Z,993.44
2022-09-17T22:07:10.577Z,993.42
2022-09-17T22:17:18.401Z,993.38
2022-09-17T22:27:24.833Z,993.39
2022-09-17T22:37:32.068Z,993.44
2022-09-17T22:47:38.061Z,993.38
2022-09-17T22:57:45.620Z,993.37
2022-09-17T23:07:51.520Z,993.39
2022-09-17T23:17:58.844Z,993.43
2022-09-17T23:28:04.492Z,993.53
2022-09-17T23:38:12.223Z,993.57
2022-09-17T23:48:18.164Z,993.63
2022-09-17T23:58:25.687Z,993.73
